Time;durP1;ratioP1;P1;durP2;ratioP2;P2;SDS_P1;SDS_P2;PMS_P1;PMS_P2;Temp;Humidity;BMP_temperature;BMP_pressure;BME280_temperature;BME280_humidity;BME280_pressure;Samples;Min_cycle;Max_cycle;Signal;HPM_P1;HPM_P2
2022/03/05 00:01:34;;;;;;;17.10;10.30;;;;;;;0.52;71.95;98575.34;25125;1313;3055740;-72
2022/03/05 00:04:04;;;;;;;18.40;11.00;;;;;;;0.09;72.98;98577.98;25080;1312;3027356;-71
2022/03/05 00:06:33;;;;;;;21.10;11.40;;;;;;;0.05;73.00;98579.44;25086;1312;3030079;-69
2022/03/05 00:09:02;;;;;;;21.90;11.70;;;;;;;-0.26;73.77;98579.59;25158;1312;3056115;-70
2022/03/05 00:11:31;;;;;;;20.10;11.60;;;;;;;-0.41;74.54;98581.56;25159;1312;3026748;-70
2022/03/05 00:14:00;;;;;;;22.00;12.30;;;;;;;-0.46;74.73;98583.77;25104;1313;3026757;-66
2022/03/05 00:16:29;;;;;;;21.30;10.60;;;;;;;-0.55;75.07;98584.56;25065;1312;3026337;-66
2022/03/05 00:18:58;;;;;;;15.60;8.90;;;;;;;-0.58;75.50;98583.80;25091;1312;3051708;-70
2022/03/05 00:21:29;;;;;;;18.80;10.90;;;;;;;-0.01;74.40;98578.77;25104;1312;3027019;-67
2022/03/05 00:23:59;;;;;;;17.50;10.50;;;;;;;0.54;72.42;98567.69;25078;1312;3027107;-68
2022/03/05 00:26:28;;;;;;;18.60;10.90;;;;;;;0.48;72.16;98571.83;25111;1312;3028208;-67
2022/03/05 00:28:57;;;;;;;17.20;9.10;;;;;;;0.37;72.39;98566.71;25045;1313;3051695;-72
2022/03/05 00:34:47;;;;;;;22.00;13.60;;;;;;;0.03;73.54;98573.67;31280;1320;3026219;-67
2022/03/05 00:37:17;;;;;;;21.70;13.80;;;;;;;0.19;72.79;98576.42;24916;1321;3026472;-68
2022/03/05 00:39:45;;;;;;;20.70;12.40;;;;;;;0.15;72.48;98571.05;24892;1321;3026611;-63
2022/03/05 00:42:14;;;;;;;17.60;10.10;;;;;;;-0.10;73.27;98575.64;24967;1318;3048103;-68
2022/03/05 00:44:43;;;;;;;21.00;11.70;;;;;;;-0.24;73.79;98571.09;24955;1318;3027825;-69
2022/03/05 00:47:10;;;;;;;22.60;11.30;;;;;;;-0.38;74.33;98569.26;23629;1315;8685444;-63
2022/03/05 00:49:39;;;;;;;12.70;6.70;;;;;;;-0.49;74.76;98575.10;25049;1315;3051528;-68
2022/03/05 00:57:37;;;;;;;19.70;12.20;;;;;;;0.77;70.90;98565.34;31555;1308;3026489;-63
2022/03/05 01:00:10;;;;;;;22.40;15.00;;;;;;;0.71;70.48;98565.36;25133;1311;3026590;-66
2022/03/05 01:02:40;;;;;;;21.50;11.90;;;;;;;0.69;70.44;98561.49;25138;1311;3026804;-65
2022/03/05 01:05:10;;;;;;;17.60;11.00;;;;;;;0.29;71.49;98575.56;25177;1312;3027576;-65
2022/03/05 01:07:39;;;;;;;20.60;11.40;;;;;;;-0.05;72.50;98576.66;25229;1311;3028127;-66
2022/03/05 01:10:05;;;;;;;20.60;11.40;;;;;;;-0.24;73.14;98578.13;23780;1311;5599391;-68
2022/03/05 01:12:35;;;;;;;22.20;13.80;;;;;;;-0.04;72.94;98573.37;25089;1308;3048421;-67
2022/03/05 01:15:06;;;;;;;17.60;10.60;;;;;;;0.15;72.41;98575.55;25179;1308;3026853;-64
2022/03/05 01:17:35;;;;;;;18.70;11.20;;;;;;;0.69;71.31;98572.36;25195;1308;3029992;-65
2022/03/05 01:20:05;;;;;;;16.20;9.70;;;;;;;0.94;70.03;98572.52;25086;1308;3026577;-66
2022/03/05 01:22:34;;;;;;;20.10;10.70;;;;;;;0.39;70.21;98577.33;25106;1309;3051656;-67
2022/03/05 01:25:04;;;;;;;21.00;10.70;;;;;;;0.26;71.09;98579.14;25173;1308;3026858;-66
2022/03/05 01:27:33;;;;;;;17.00;10.20;;;;;;;0.16;71.45;98580.50;25143;1311;3048553;-65
2022/03/05 01:30:03;;;;;;;21.20;11.10;;;;;;;-0.03;72.22;98577.11;25196;1309;3026200;-61
2022/03/05 01:32:33;;;;;;;16.60;9.80;;;;;;;-0.17;72.37;98577.91;25113;1308;3026306;-67
2022/03/05 01:35:02;;;;;;;18.60;9.50;;;;;;;-0.36;72.76;98582.78;25159;1308;3029685;-64
2022/03/05 01:37:31;;;;;;;20.70;10.90;;;;;;;-0.62;73.64;98588.71;25227;1308;3051293;-62
2022/03/05 01:45:13;;;;;;;20.00;10.60;;;;;;;-0.64;74.48;98592.05;31308;1321;3027926;-65
2022/03/05 01:47:45;;;;;;;23.90;15.70;;;;;;;-0.31;73.12;98596.05;24940;1321;3026533;-67
2022/03/05 01:50:14;;;;;;;21.30;12.30;;;;;;;-0.12;72.47;98591.55;25071;1317;3026956;-72
2022/03/05 01:52:43;;;;;;;25.40;13.20;;;;;;;-0.36;72.86;98598.43;25092;1317;3026490;-68
2022/03/05 01:55:13;;;;;;;23.00;12.30;;;;;;;-0.56;73.67;98599.57;25053;1318;3055259;-63
2022/03/05 01:57:40;;;;;;;19.60;11.20;;;;;;;-0.57;73.24;98604.73;23572;1316;8688350;-60
2022/03/05 02:00:10;;;;;;;20.40;10.20;;;;;;;-0.78;74.23;98603.30;25118;1315;3026899;-66
2022/03/05 02:02:42;;;;;;;18.40;9.80;;;;;;;-0.10;72.90;98604.02;25078;1315;3051082;-62
2022/03/05 02:05:12;;;;;;;22.00;11.60;;;;;;;0.38;70.88;98601.99;25055;1315;3026120;-64
2022/03/05 02:07:43;;;;;;;23.40;12.60;;;;;;;0.39;70.11;98606.63;25109;1315;3027594;-66
2022/03/05 02:10:12;;;;;;;24.90;12.20;;;;;;;0.16;70.34;98601.69;25030;1315;3026489;-65
2022/03/05 02:12:45;;;;;;;23.00;12.20;;;;;;;-0.11;71.07;98607.67;25127;1315;3053784;-69
2022/03/05 02:15:13;;;;;;;22.00;11.90;;;;;;;-0.14;70.97;98606.41;25044;1315;3026602;-66
2022/03/05 02:17:43;;;;;;;18.00;9.10;;;;;;;-0.35;71.65;98603.59;25036;1315;3051214;-66
2022/03/05 02:20:13;;;;;;;21.20;10.50;;;;;;;-0.64;72.35;98607.36;25046;1315;3026595;-63
2022/03/05 02:22:42;;;;;;;21.40;10.70;;;;;;;-0.70;72.58;98606.85;25077;1315;3026442;-59
2022/03/05 02:25:11;;;;;;;20.00;9.70;;;;;;;-0.76;73.54;98610.61;25103;1315;3051515;-68
2022/03/05 02:27:40;;;;;;;17.90;8.30;;;;;;;-0.74;73.46;98608.33;25057;1315;3027975;-63
2022/03/05 02:30:10;;;;;;;24.50;10.90;;;;;;;-0.90;74.23;98617.71;25059;1315;3050562;-71
2022/03/05 02:32:39;;;;;;;14.00;8.50;;;;;;;-0.88;74.32;98615.25;25130;1315;3027510;-67
2022/03/05 02:35:08;;;;;;;19.30;9.80;;;;;;;-0.41;73.28;98615.98;25061;1315;3028580;-67
2022/03/05 02:37:37;;;;;;;14.10;9.00;;;;;;;0.22;71.32;98612.69;25072;1315;3050644;-67
2022/03/05 02:40:08;;;;;;;16.90;9.80;;;;;;;0.28;70.46;98615.41;25063;1315;3026326;-65
2022/03/05 02:42:36;;;;;;;17.60;10.40;;;;;;;0.03;70.35;98615.67;25075;1315;3070820;-65
2022/03/05 02:45:06;;;;;;;14.60;8.80;;;;;;;-0.12;71.02;98620.95;25061;1315;3026389;-65
2022/03/05 02:47:35;;;;;;;17.70;9.60;;;;;;;-0.30;71.07;98623.05;25073;1315;3053114;-67
2022/03/05 02:50:05;;;;;;;13.60;8.30;;;;;;;-0.49;71.85;98624.80;25079;1315;3026879;-66
2022/03/05 02:52:38;;;;;;;16.70;9.00;;;;;;;-0.52;71.76;98621.64;25091;1315;3028663;-62
2022/03/05 02:55:07;;;;;;;16.40;9.00;;;;;;;-0.63;71.87;98622.98;25111;1315;3026667;-69
2022/03/05 02:57:36;;;;;;;19.60;11.40;;;;;;;-0.86;72.89;98625.68;25037;1315;3026895;-65
2022/03/05 03:00:06;;;;;;;20.60;10.90;;;;;;;-0.95;73.52;98625.41;25094;1315;3026705;-66
2022/03/05 03:06:02;;;;;;;23.10;12.50;;;;;;;-0.72;73.12;98632.17;31586;1310;3027665;-64
2022/03/05 03:08:31;;;;;;;16.30;10.80;;;;;;;0.08;72.33;98627.02;25136;1309;3026169;-64
2022/03/05 03:11:01;;;;;;;16.10;9.40;;;;;;;0.59;69.48;98631.13;25160;1309;3026531;-64
2022/03/05 03:13:30;;;;;;;17.50;8.70;;;;;;;0.25;69.72;98619.80;25110;1309;3026733;-64
2022/03/05 03:15:59;;;;;;;13.40;8.70;;;;;;;0.04;70.52;98630.11;25161;1309;3026335;-65
2022/03/05 03:18:26;;;;;;;15.20;8.50;;;;;;;-0.15;70.59;98635.34;23702;1307;8695493;-64
2022/03/05 03:20:54;;;;;;;16.30;9.40;;;;;;;-0.28;70.98;98630.91;25169;1306;3029507;-63
2022/03/05 03:23:23;;;;;;;15.20;8.30;;;;;;;-0.44;71.47;98638.28;25264;1306;3027553;-64
2022/03/05 03:25:52;;;;;;;16.30;9.70;;;;;;;-0.56;72.06;98636.20;25190;1306;3067975;-65
2022/03/05 03:28:24;;;;;;;15.50;8.40;;;;;;;-0.63;72.21;98643.79;25203;1306;3026786;-66
2022/03/05 03:30:54;;;;;;;14.40;9.10;;;;;;;-0.64;72.30;98635.88;25202;1307;3026651;-63
2022/03/05 03:33:24;;;;;;;15.00;8.80;;;;;;;-0.67;72.55;98643.05;25158;1306;3067888;-65
2022/03/05 03:35:54;;;;;;;21.90;9.70;;;;;;;-0.78;72.99;98641.48;25172;1306;3028873;-62
2022/03/05 03:38:23;;;;;;;14.80;8.00;;;;;;;-0.81;73.53;98645.50;25233;1306;3027191;-64
2022/03/05 03:40:52;;;;;;;15.90;8.70;;;;;;;-0.78;73.23;98643.02;25160;1309;3026907;-64
2022/03/05 03:43:21;;;;;;;13.60;7.40;;;;;;;-0.85;74.05;98651.80;25203;1306;3048126;-67
2022/03/05 03:45:50;;;;;;;11.30;6.60;;;;;;;-0.18;73.00;98640.75;25184;1306;3026568;-62
2022/03/05 03:48:19;;;;;;;16.80;8.50;;;;;;;0.29;71.05;98641.23;25178;1306;3067820;-66
2022/03/05 03:50:50;;;;;;;14.90;7.90;;;;;;;0.36;70.13;98647.03;25152;1306;3026554;-66
2022/03/05 03:53:19;;;;;;;17.70;9.00;;;;;;;0.11;70.80;98652.62;25183;1306;3026831;-67
2022/03/05 03:55:48;;;;;;;13.00;7.70;;;;;;;-0.10;71.36;98657.23;25146;1306;3026326;-62
2022/03/05 03:58:17;;;;;;;11.80;6.60;;;;;;;-0.18;71.70;98654.02;25226;1306;3048374;-67
2022/03/05 04:00:46;;;;;;;16.00;8.90;;;;;;;-0.41;72.45;98657.44;25204;1306;3026224;-66
2022/03/05 04:03:16;;;;;;;15.20;8.00;;;;;;;-0.51;72.96;98658.77;25177;1306;3030453;-64
2022/03/05 04:05:45;;;;;;;14.50;8.10;;;;;;;-0.63;73.36;98659.77;25182;1306;3048427;-63
2022/03/05 04:11:04;;;;;;;13.70;7.20;;;;;;;-0.70;74.02;98663.23;25173;1309;3070746;-65
2022/03/05 04:13:33;;;;;;;13.80;7.50;;;;;;;-0.96;74.94;98668.08;25201;1307;3026128;-65
2022/03/05 04:16:02;;;;;;;9.80;5.80;;;;;;;-0.91;75.82;98673.08;25200;1306;3027588;-63
2022/03/05 04:18:33;;;;;;;11.70;6.90;;;;;;;-0.25;74.44;98662.15;25267;1309;3070333;-67
2022/03/05 04:21:04;;;;;;;12.40;6.80;;;;;;;0.28;71.94;98655.89;25246;1306;3026303;-63
2022/03/05 04:23:33;;;;;;;15.00;8.00;;;;;;;0.25;71.76;98659.08;25235;1307;3027202;-64
2022/03/05 04:26:02;;;;;;;12.90;7.40;;;;;;;-0.06;72.32;98657.11;25227;1309;3026260;-66
2022/03/05 04:28:31;;;;;;;15.80;7.90;;;;;;;-0.19;72.58;98657.17;25192;1309;3051053;-65
2022/03/05 04:31:00;;;;;;;13.60;8.10;;;;;;;-0.37;72.85;98657.51;25200;1309;3026584;-66
2022/03/05 04:33:38;;;;;;;18.20;9.00;;;;;;;-0.60;73.65;98666.05;25195;1309;3067265;-64
2022/03/05 04:36:07;;;;;;;19.00;10.40;;;;;;;-0.69;73.66;98668.04;25220;1309;3026529;-62
2022/03/05 04:38:36;;;;;;;20.00;11.10;;;;;;;-0.61;73.60;98665.09;25210;1309;3052235;-67
2022/03/05 04:41:05;;;;;;;16.20;9.30;;;;;;;-0.89;74.25;98675.13;25272;1307;3026607;-62
2022/03/05 04:43:34;;;;;;;12.20;6.50;;;;;;;-0.87;74.41;98673.17;25198;1308;3052611;-67
2022/03/05 04:46:03;;;;;;;15.50;8.00;;;;;;;-1.07;75.12;98682.48;25230;1308;3029916;-65
2022/03/05 04:48:32;;;;;;;11.50;6.10;;;;;;;-1.11;75.89;98681.71;25154;1309;3048972;-67
2022/03/05 04:51:01;;;;;;;12.40;5.90;;;;;;;-0.46;74.66;98675.65;25150;1309;3026502;-65
2022/03/05 04:53:31;;;;;;;10.90;5.90;;;;;;;0.29;71.84;98674.98;25193;1308;3058615;-67
2022/03/05 04:56:01;;;;;;;11.20;6.30;;;;;;;0.30;71.00;98677.36;25162;1309;3026932;-65
2022/03/05 04:58:30;;;;;;;10.30;5.70;;;;;;;-0.04;71.41;98676.85;25136;1309;3026792;-66
2022/03/05 05:00:59;;;;;;;9.20;5.50;;;;;;;-0.47;72.86;98687.40;25268;1309;3026448;-68
2022/03/05 05:03:29;;;;;;;10.10;6.40;;;;;;;-0.62;73.42;98684.01;25225;1309;3051607;-63
2022/03/05 05:05:58;;;;;;;11.90;6.00;;;;;;;-0.60;73.48;98683.44;25226;1310;3028172;-63
2022/03/05 05:08:27;;;;;;;12.50;6.50;;;;;;;-0.67;73.36;98693.10;25283;1309;3026558;-66
2022/03/05 05:10:57;;;;;;;13.50;6.60;;;;;;;-0.88;74.24;98694.02;25319;1308;3049109;-66
2022/03/05 05:13:26;;;;;;;11.10;6.70;;;;;;;-0.87;74.08;98697.42;25249;1309;3026652;-64
2022/03/05 05:15:55;;;;;;;13.90;7.50;;;;;;;-0.95;74.65;98705.68;25366;1309;3056104;-65
2022/03/05 05:18:26;;;;;;;13.30;7.60;;;;;;;-0.94;74.98;98704.46;25209;1308;3026492;-65
2022/03/05 05:20:55;;;;;;;12.20;6.00;;;;;;;-1.01;75.07;98709.29;25219;1309;3026430;-65
2022/03/05 05:23:24;;;;;;;10.80;5.70;;;;;;;-0.48;73.98;98702.20;25192;1309;3058704;-64
2022/03/05 05:25:54;;;;;;;11.30;6.10;;;;;;;0.04;72.15;98701.06;25150;1309;3027022;-65
2022/03/05 05:28:23;;;;;;;11.30;6.70;;;;;;;0.08;71.69;98706.45;25231;1309;3026474;-65
2022/03/05 05:30:52;;;;;;;10.70;5.80;;;;;;;-0.01;71.44;98712.42;25158;1307;3056636;-65
2022/03/05 05:33:21;;;;;;;11.40;6.40;;;;;;;0.05;71.54;98713.42;25183;1309;3027157;-63
2022/03/05 05:35:50;;;;;;;10.80;6.60;;;;;;;-0.12;71.78;98716.50;25153;1309;3055193;-66
2022/03/05 05:38:19;;;;;;;10.70;6.10;;;;;;;-0.49;72.40;98722.38;25203;1309;3026776;-65
2022/03/05 05:40:48;;;;;;;13.30;6.60;;;;;;;-0.54;73.18;98720.27;25139;1307;3051256;-63
2022/03/05 05:43:17;;;;;;;10.70;6.30;;;;;;;-0.59;72.96;98721.45;25241;1309;3026342;-64
2022/03/05 05:45:46;;;;;;;13.30;8.00;;;;;;;-0.79;73.75;98735.90;25281;1309;3050798;-66
2022/03/05 05:48:15;;;;;;;13.80;7.30;;;;;;;-0.94;74.12;98743.35;25251;1309;3026828;-63
2022/03/05 05:50:44;;;;;;;11.10;7.10;;;;;;;-0.91;74.22;98742.05;25212;1309;3070418;-64
2022/03/05 05:53:14;;;;;;;8.90;5.30;;;;;;;-0.96;74.77;98748.04;25257;1309;3026797;-65
2022/03/05 05:55:58;;;;;;;13.90;6.50;;;;;;;-0.26;73.42;98748.92;25192;1309;3054349;-64
2022/03/05 05:58:27;;;;;;;11.80;6.10;;;;;;;0.31;71.13;98747.96;25238;1309;3026345;-66
2022/03/05 06:00:56;;;;;;;10.60;6.30;;;;;;;0.32;70.34;98745.88;25152;1309;3049006;-63
2022/03/05 06:03:27;;;;;;;11.70;6.30;;;;;;;0.15;70.53;98750.85;25217;1309;3026558;-64
2022/03/05 06:05:59;;;;;;;17.90;9.00;;;;;;;-0.15;71.55;98755.51;25252;1309;3026527;-64
2022/03/05 06:08:28;;;;;;;15.20;7.50;;;;;;;-0.19;71.68;98761.81;25163;1309;3030465;-63
2022/03/05 06:10:57;;;;;;;14.20;8.30;;;;;;;-0.45;72.22;98762.68;25185;1307;3026140;-67
2022/03/05 06:13:26;;;;;;;13.00;8.20;;;;;;;-0.64;73.06;98771.96;25172;1309;3050563;-65
2022/03/05 06:16:07;;;;;;;15.80;8.50;;;;;;;-0.70;73.39;98777.47;25194;1309;3059152;-64
2022/03/05 06:18:38;;;;;;;17.30;8.40;;;;;;;-0.80;73.79;98776.86;25118;1309;3026934;-66
2022/03/05 06:21:09;;;;;;;12.60;7.90;;;;;;;-0.87;73.77;98771.52;25190;1309;3026628;-63
2022/03/05 06:23:38;;;;;;;12.70;6.50;;;;;;;-0.92;74.02;98778.70;25154;1309;3027236;-66
2022/03/05 06:26:08;;;;;;;11.60;6.90;;;;;;;-1.11;74.75;98778.29;25228;1309;3027831;-68
2022/03/05 06:28:37;;;;;;;9.30;5.40;;;;;;;-0.49;73.36;98772.07;25234;1309;3056008;-65
2022/03/05 06:31:06;;;;;;;8.60;6.00;;;;;;;-0.08;71.56;98774.25;25207;1309;3026935;-62
2022/03/05 06:33:35;;;;;;;12.00;6.20;;;;;;;-0.02;70.98;98771.83;25164;1308;3049092;-67
2022/03/05 06:36:04;;;;;;;14.00;8.20;;;;;;;-0.25;71.10;98776.45;25247;1309;3028428;-65
2022/03/05 06:38:35;;;;;;;13.70;7.00;;;;;;;-0.44;72.09;98779.70;25176;1309;3028077;-66
2022/03/05 06:41:03;;;;;;;11.50;6.00;;;;;;;-0.53;72.59;98789.59;25187;1309;3026593;-64
2022/03/05 06:43:32;;;;;;;15.50;7.30;;;;;;;-0.68;72.77;98785.48;25152;1309;3028877;-62
2022/03/05 06:46:01;;;;;;;11.50;7.00;;;;;;;-0.77;73.31;98790.88;25231;1309;3051184;-65
2022/03/05 06:48:30;;;;;;;13.60;7.00;;;;;;;-0.82;73.24;98786.02;25121;1309;3028491;-65
2022/03/05 06:50:59;;;;;;;16.90;8.60;;;;;;;-0.91;74.01;98788.47;25223;1309;3052851;-67
2022/03/05 06:53:29;;;;;;;16.30;9.30;;;;;;;-0.87;73.85;98789.25;25229;1309;3026641;-66
2022/03/05 06:55:58;;;;;;;17.20;8.30;;;;;;;-0.82;73.67;98783.44;25125;1309;3049489;-64
2022/03/05 06:58:27;;;;;;;13.70;6.70;;;;;;;-0.83;73.56;98785.70;25198;1307;3026726;-64
2022/03/05 07:00:56;;;;;;;10.10;5.90;;;;;;;-0.30;72.74;98780.70;25182;1309;3026495;-65
2022/03/05 07:03:25;;;;;;;10.80;5.80;;;;;;;0.36;70.21;98777.12;25163;1309;3051196;-64
2022/03/05 07:05:54;;;;;;;12.60;6.50;;;;;;;0.52;69.27;98775.76;25170;1309;3026313;-64
2022/03/05 07:08:23;;;;;;;17.50;8.70;;;;;;;0.30;69.48;98781.08;25172;1309;3058431;-64
2022/03/05 07:10:52;;;;;;;20.00;8.00;;;;;;;0.07;70.14;98778.29;25127;1309;3026371;-64
2022/03/05 07:13:21;;;;;;;13.80;7.20;;;;;;;-0.32;71.42;98781.61;25203;1309;3053814;-63
2022/03/05 07:15:50;;;;;;;14.80;7.10;;;;;;;-0.30;71.95;98780.52;25162;1309;3026092;-66
2022/03/05 07:18:20;;;;;;;16.30;8.20;;;;;;;-0.35;71.79;98775.86;25116;1309;3030517;-65
2022/03/05 07:20:49;;;;;;;15.30;6.90;;;;;;;-0.30;71.83;98778.13;25192;1309;3028524;-66
2022/03/05 07:23:18;;;;;;;13.50;6.60;;;;;;;-0.30;71.97;98785.67;25166;1309;3056133;-66
2022/03/05 07:25:47;;;;;;;16.10;8.50;;;;;;;-0.54;72.71;98788.39;25218;1309;3027576;-66
2022/03/05 07:28:15;;;;;;;13.20;7.00;;;;;;;-0.60;73.42;98790.95;25199;1309;3053590;-65
2022/03/05 07:30:45;;;;;;;13.50;7.10;;;;;;;-0.67;73.48;98793.71;25208;1309;3026450;-71
2022/03/05 07:33:14;;;;;;;13.30;5.60;;;;;;;-0.79;74.07;98791.27;25230;1309;3056018;-70
2022/03/05 07:35:43;;;;;;;11.00;5.10;;;;;;;-0.24;73.22;98791.21;25288;1309;3026644;-68
2022/03/05 07:38:12;;;;;;;10.90;5.60;;;;;;;0.37;71.24;98783.45;25248;1309;3048330;-68
2022/03/05 07:40:41;;;;;;;11.40;5.90;;;;;;;0.51;70.50;98784.56;25346;1309;3027618;-68
2022/03/05 07:43:12;;;;;;;10.40;6.70;;;;;;;0.22;70.72;98785.26;25247;1309;3066959;-66
2022/03/05 07:45:41;;;;;;;14.00;7.10;;;;;;;0.24;70.89;98781.93;25154;1309;3026836;-65
2022/03/05 07:48:11;;;;;;;27.50;14.10;;;;;;;0.03;71.49;98789.77;25183;1309;3026248;-65
2022/03/05 07:50:40;;;;;;;20.90;11.60;;;;;;;-0.21;72.07;98791.64;25352;1309;3027014;-65
2022/03/05 07:53:09;;;;;;;18.80;10.10;;;;;;;-0.15;71.94;98793.71;25305;1309;3048595;-67
2022/03/05 07:55:38;;;;;;;18.70;10.00;;;;;;;-0.13;72.27;98796.76;25149;1310;3026964;-66
2022/03/05 07:58:08;;;;;;;29.00;13.00;;;;;;;-0.18;72.10;98795.53;25171;1309;3028158;-68
2022/03/05 08:00:36;;;;;;;21.10;11.80;;;;;;;-0.42;73.37;98805.29;25157;1309;3048351;-67
2022/03/05 08:03:05;;;;;;;23.70;11.50;;;;;;;-0.30;72.79;98799.65;25196;1309;3026340;-66
2022/03/05 08:05:34;;;;;;;22.90;11.40;;;;;;;-0.30;72.78;98796.02;25130;1309;3071195;-67
2022/03/05 08:08:07;;;;;;;21.10;8.30;;;;;;;-0.44;73.04;98803.79;25164;1309;3026408;-68
2022/03/05 08:10:36;;;;;;;17.50;8.60;;;;;;;0.26;71.94;98794.44;25239;1309;3026524;-66
2022/03/05 08:13:07;;;;;;;16.00;7.90;;;;;;;0.85;70.05;98793.52;25213;1309;3026140;-66
2022/03/05 08:15:43;;;;;;;14.90;7.90;;;;;;;0.85;69.07;98793.86;25179;1309;3059387;-67
2022/03/05 08:18:12;;;;;;;13.60;7.40;;;;;;;0.81;68.51;98795.54;25133;1310;3027696;-67
2022/03/05 08:20:41;;;;;;;12.60;6.40;;;;;;;0.51;69.04;98806.46;25201;1310;3026501;-67
2022/03/05 08:23:11;;;;;;;16.20;6.10;;;;;;;0.20;69.90;98804.59;25211;1309;3026889;-65
2022/03/05 08:25:41;;;;;;;11.70;6.10;;;;;;;-0.02;70.86;98811.61;25115;1309;3027094;-65
2022/03/05 08:28:10;;;;;;;15.40;6.80;;;;;;;0.10;70.64;98805.60;25148;1309;3026868;-67
2022/03/05 08:30:40;;;;;;;8.00;4.80;;;;;;;-0.22;71.39;98813.88;25185;1309;3050667;-66
2022/03/05 08:33:09;;;;;;;14.00;6.40;;;;;;;-0.44;72.23;98819.80;25215;1309;3031245;-68
2022/03/05 08:35:38;;;;;;;10.20;5.30;;;;;;;-0.31;71.93;98814.81;25255;1309;3027133;-66
2022/03/05 08:38:08;;;;;;;11.90;5.50;;;;;;;-0.55;72.84;98821.45;25211;1309;3026273;-65
2022/03/05 08:40:37;;;;;;;12.60;6.10;;;;;;;-0.63;73.35;98827.85;25214;1309;3066808;-64
2022/03/05 08:43:06;;;;;;;10.50;6.40;;;;;;;-0.47;73.13;98828.45;25226;1309;3026570;-68
2022/03/05 08:45:35;;;;;;;9.00;4.70;;;;;;;-0.40;72.90;98831.39;25159;1309;3050806;-66
2022/03/05 08:48:04;;;;;;;8.90;4.70;;;;;;;0.02;71.92;98829.41;25121;1309;3026743;-69
2022/03/05 08:50:35;;;;;;;9.30;4.90;;;;;;;0.41;70.09;98832.10;25146;1309;3052844;-65
2022/03/05 08:53:04;;;;;;;8.90;5.50;;;;;;;0.63;69.66;98825.08;25134;1310;3026673;-65
2022/03/05 08:55:34;;;;;;;9.00;5.10;;;;;;;0.50;69.56;98828.90;25113;1310;3027672;-67
2022/03/05 08:58:04;;;;;;;12.00;5.70;;;;;;;0.49;70.03;98834.45;25183;1309;3028647;-64
2022/03/05 09:00:34;;;;;;;9.20;5.20;;;;;;;0.49;69.55;98833.92;25180;1309;3027656;-67
2022/03/05 09:03:03;;;;;;;10.10;5.10;;;;;;;0.20;70.51;98837.68;25161;1309;3026863;-66
2022/03/05 09:05:32;;;;;;;11.70;5.10;;;;;;;-0.09;71.54;98844.17;25148;1309;3026987;-66
2022/03/05 09:08:01;;;;;;;9.60;5.20;;;;;;;-0.11;71.67;98848.52;25196;1309;3051365;-66
2022/03/05 09:10:30;;;;;;;10.30;5.50;;;;;;;-0.07;71.07;98852.89;25233;1309;3026448;-68
2022/03/05 09:13:00;;;;;;;11.10;5.60;;;;;;;-0.08;71.54;98857.22;25206;1309;3048189;-65
2022/03/05 09:15:29;;;;;;;8.90;5.10;;;;;;;-0.11;71.58;98860.56;25154;1309;3028995;-64
2022/03/05 09:18:00;;;;;;;9.60;5.30;;;;;;;0.03;71.28;98857.45;25179;1309;3026557;-67
2022/03/05 09:20:30;;;;;;;9.90;5.90;;;;;;;-0.16;71.98;98865.19;25196;1309;3029762;-66
2022/03/05 09:23:01;;;;;;;8.60;5.10;;;;;;;-0.05;72.12;98857.13;25231;1309;3052014;-69
2022/03/05 09:25:32;;;;;;;8.90;4.90;;;;;;;0.73;70.95;98853.52;25181;1309;3027573;-64
2022/03/05 09:28:00;;;;;;;8.20;4.40;;;;;;;1.43;68.28;98852.38;25219;1309;3027630;-66
2022/03/05 09:30:30;;;;;;;10.90;5.50;;;;;;;1.48;67.10;98852.39;25203;1309;3051282;-66
2022/03/05 09:32:59;;;;;;;8.40;4.80;;;;;;;1.14;67.40;98855.88;25224;1309;3028684;-66
2022/03/05 09:35:28;;;;;;;12.60;6.50;;;;;;;0.82;68.30;98853.45;25140;1309;3026692;-66
2022/03/05 09:37:57;;;;;;;11.20;6.10;;;;;;;0.56;69.59;98860.27;25192;1309;3026959;-68
2022/03/05 09:40:37;;;;;;;12.40;6.20;;;;;;;0.40;69.96;98858.13;25223;1310;3054323;-67
2022/03/05 09:43:06;;;;;;;9.10;5.10;;;;;;;0.41;70.49;98861.04;25162;1312;3026601;-67
2022/03/05 09:45:35;;;;;;;14.70;6.60;;;;;;;0.24;71.09;98863.94;25247;1309;3054176;-65
2022/03/05 09:48:06;;;;;;;12.80;6.10;;;;;;;0.32;70.88;98861.82;25191;1310;3030067;-66
2022/03/05 09:50:35;;;;;;;12.40;6.10;;;;;;;0.31;70.95;98867.00;25215;1309;3026883;-65
2022/03/05 09:53:05;;;;;;;10.20;5.70;;;;;;;0.24;70.87;98866.33;25230;1309;3028716;-67
2022/03/05 09:55:34;;;;;;;12.60;5.90;;;;;;;-0.09;72.26;98881.89;25162;1310;3050142;-67
2022/03/05 09:58:03;;;;;;;12.80;6.30;;;;;;;0.02;72.05;98878.16;25195;1309;3027226;-64
2022/03/05 10:00:32;;;;;;;11.40;5.90;;;;;;;-0.13;72.51;98883.51;25234;1310;3026559;-66
2022/03/05 10:03:05;;;;;;;10.10;5.60;;;;;;;-0.22;73.27;98881.53;25201;1309;3026739;-68
2022/03/05 10:05:38;;;;;;;7.80;3.80;;;;;;;-0.24;73.51;98882.27;25234;1309;3057025;-72
2022/03/05 10:08:20;;;;;;;7.20;4.50;;;;;;;0.57;72.22;98877.80;25198;1309;3054128;-68
2022/03/05 10:10:53;;;;;;;10.70;5.10;;;;;;;1.05;69.65;98873.62;25247;1309;3055992;-64
2022/03/05 10:13:30;;;;;;;7.90;4.60;;;;;;;1.07;69.34;98881.66;25131;1309;3026553;-68
2022/03/05 10:16:03;;;;;;;9.00;4.90;;;;;;;0.97;69.51;98877.48;25141;1310;3070293;-65
2022/03/05 10:18:41;;;;;;;8.50;5.00;;;;;;;0.78;69.96;98876.48;25155;1309;3052128;-62
2022/03/05 10:21:31;;;;;;;10.10;6.00;;;;;;;0.50;71.47;98880.26;25107;1309;3054827;-66
2022/03/05 10:24:09;;;;;;;9.30;5.20;;;;;;;0.59;71.37;98877.40;25192;1312;3026571;-65
2022/03/05 10:26:50;;;;;;;9.30;5.70;;;;;;;0.35;71.67;98884.64;25165;1310;3057626;-66
2022/03/05 10:29:26;;;;;;;8.70;5.20;;;;;;;0.30;72.12;98888.05;25210;1309;3050257;-64
2022/03/05 10:32:04;;;;;;;12.20;5.70;;;;;;;0.38;72.11;98888.19;25184;1309;3053537;-68
2022/03/05 10:34:42;;;;;;;12.30;5.90;;;;;;;0.21;72.49;98900.86;25146;1309;3051207;-67
2022/03/05 10:37:11;;;;;;;10.00;5.90;;;;;;;0.00;73.32;98905.40;25152;1312;3070963;-61
2022/03/05 10:39:41;;;;;;;13.50;6.00;;;;;;;-0.18;74.07;98897.27;25163;1310;3026601;-62
2022/03/05 10:42:24;;;;;;;8.10;4.70;;;;;;;-0.20;74.32;98897.83;25167;1309;3026041;-64
2022/03/05 10:45:09;;;;;;;7.70;5.20;;;;;;;0.70;72.84;98885.88;25207;1309;3069526;-63
2022/03/05 10:47:42;;;;;;;9.80;5.80;;;;;;;1.14;70.24;98888.16;25167;1309;3047817;-62
2022/03/05 10:50:30;;;;;;;11.10;5.50;;;;;;;1.39;69.87;98887.02;25162;1309;3026491;-62
2022/03/05 10:53:01;;;;;;;9.60;5.40;;;;;;;1.16;69.62;98893.77;25121;1309;3054913;-64
2022/03/05 10:55:36;;;;;;;7.50;4.90;;;;;;;0.63;70.62;98892.97;25147;1309;3026329;-66
2022/03/05 10:58:14;;;;;;;12.90;5.90;;;;;;;0.47;71.18;98901.55;25174;1309;3052294;-65
2022/03/05 11:00:46;;;;;;;10.20;5.30;;;;;;;0.26;72.56;98902.98;25229;1309;3052655;-68
2022/03/05 11:03:15;;;;;;;11.20;5.60;;;;;;;0.16;72.74;98902.71;25169;1309;3026763;-65
2022/03/05 11:05:44;;;;;;;9.70;5.00;;;;;;;-0.02;73.22;98907.52;25144;1313;3026922;-64
2022/03/05 11:08:14;;;;;;;10.90;6.10;;;;;;;-0.04;73.41;98905.66;25238;1309;3052133;-65
2022/03/05 11:10:43;;;;;;;12.10;6.80;;;;;;;0.10;73.51;98906.52;25184;1309;3030168;-65
2022/03/05 11:13:15;;;;;;;11.50;6.00;;;;;;;0.05;73.82;98905.09;25164;1309;3026794;-65
2022/03/05 11:15:45;;;;;;;10.00;5.60;;;;;;;-0.11;74.36;98910.67;25231;1309;3026831;-65
2022/03/05 11:18:17;;;;;;;10.70;5.70;;;;;;;0.71;72.78;98902.22;25173;1309;3027208;-67
2022/03/05 11:20:47;;;;;;;9.60;5.40;;;;;;;1.11;70.68;98905.85;25122;1313;3026426;-64
2022/03/05 11:23:17;;;;;;;10.20;6.10;;;;;;;1.14;70.17;98903.52;25178;1312;3026591;-67
2022/03/05 11:25:47;;;;;;;12.90;6.70;;;;;;;0.95;70.74;98904.77;25153;1309;3026787;-67
2022/03/05 11:28:19;;;;;;;9.70;5.80;;;;;;;0.53;71.89;98912.40;25176;1312;3026498;-69
2022/03/05 11:30:51;;;;;;;11.80;6.70;;;;;;;0.38;73.02;98909.04;25218;1309;3056901;-67
2022/03/05 11:33:23;;;;;;;9.10;5.60;;;;;;;0.10;73.57;98918.08;25131;1309;3028206;-65
2022/03/05 11:36:05;;;;;;;9.60;5.60;;;;;;;-0.08;74.54;98919.55;25222;1309;3029698;-64
2022/03/05 11:38:37;;;;;;;13.20;6.60;;;;;;;0.03;74.85;98917.21;25154;1311;3051351;-65
2022/03/05 11:41:20;;;;;;;9.70;6.00;;;;;;;0.06;75.23;98915.08;25153;1309;3026648;-66
2022/03/05 11:43:49;;;;;;;9.60;5.50;;;;;;;-0.07;75.19;98919.69;25185;1309;3049292;-66
2022/03/05 11:46:26;;;;;;;9.20;4.40;;;;;;;0.48;74.06;98912.88;25105;1309;3027259;-66